Adamant, Vermont
Current Conditions -  °F | °C
As of 11:25 PM on Tuesday 21 Oct 2014 (Local Time) from KMPV Reporting Station
Overcast Overcast  
Wind Chill: 43°   Ceiling: 200
Heat Index: 45°   Visibility: 7mi
Dew Point: 45°   Wind: 5mph
Humidity: 100%   Direction: 340°NNW
Pressure: 30.12"   Gusts: NA
Location:  44.33°N, 72.5°W
Report Text: KMPV 220325Z AUTO 34004KT 7SM BKN002 OVC008 07/07 A3012 RMK AO2 RAE16 P0000 T00720072
Loading
Personal Weather Stations






























Interactive Weather Map New forecast layout! Learn more

10-Day Weather Forecast

Advertisements
Track Severe Weather on mobile